sensor_id;sensor_type;location;lat;lon;timestamp;pressure;altitude;pressure_sealevel;temperature;humidity
62011;BME280;47967;51.756;10.174;2023-11-19T05:01:13;98946.22;;;7.94;100.00
62011;BME280;47967;51.756;10.174;2023-11-19T05:05:18;98936.75;;;7.98;100.00
62011;BME280;47967;51.756;10.174;2023-11-19T05:09:21;98940.88;;;8.08;100.00
62011;BME280;47967;51.756;10.174;2023-11-19T05:13:23;98913.81;;;8.09;100.00
62011;BME280;47967;51.756;10.174;2023-11-19T05:17:27;98902.03;;;8.10;100.00
62011;BME280;47967;51.756;10.174;2023-11-19T05:21:30;98903.69;;;8.05;100.00
62011;BME280;47967;51.756;10.174;2023-11-19T05:25:33;98903.06;;;8.16;100.00
62011;BME280;47967;51.756;10.174;2023-11-19T05:29:36;98903.69;;;8.45;100.00
62011;BME280;47967;51.756;10.174;2023-11-19T05:33:41;98906.78;;;8.69;100.00
62011;BME280;47967;51.756;10.174;2023-11-19T05:37:44;98900.38;;;8.83;100.00
62011;BME280;47967;51.756;10.174;2023-11-19T05:41:47;98913.19;;;8.88;100.00
62011;BME280;47967;51.756;10.174;2023-11-19T05:45:49;98893.31;;;8.82;100.00
62011;BME280;47967;51.756;10.174;2023-11-19T05:49:53;98865.81;;;8.80;100.00
62011;BME280;47967;51.756;10.174;2023-11-19T05:53:56;98864.13;;;8.92;100.00
62011;BME280;47967;51.756;10.174;2023-11-19T05:57:59;98876.28;;;9.08;100.00
62011;BME280;47967;51.756;10.174;2023-11-19T06:02:02;98874.19;;;9.17;100.00
62011;BME280;47967;51.756;10.174;2023-11-19T06:06:06;98895.66;;;9.31;100.00
62011;BME280;47967;51.756;10.174;2023-11-19T06:10:10;98907.47;;;9.36;100.00
62011;BME280;47967;51.756;10.174;2023-11-19T06:14:14;98913.84;;;9.42;100.00
62011;BME280;47967;51.756;10.174;2023-11-19T06:18:16;98908.84;;;9.45;100.00
62011;BME280;47967;51.756;10.174;2023-11-19T06:22:23;98919.63;;;9.45;100.00
62011;BME280;47967;51.756;10.174;2023-11-19T06:26:26;98931.63;;;9.50;100.00
62011;BME280;47967;51.756;10.174;2023-11-19T06:30:29;98919.16;;;9.55;100.00
62011;BME280;47967;51.756;10.174;2023-11-19T06:34:34;98919.78;;;9.51;100.00
62011;BME280;47967;51.756;10.174;2023-11-19T06:38:38;98916.69;;;9.54;100.00
62011;BME280;47967;51.756;10.174;2023-11-19T06:42:41;98923.34;;;9.44;100.00
62011;BME280;47967;51.756;10.174;2023-11-19T06:46:43;98921.50;;;9.45;100.00
62011;BME280;47967;51.756;10.174;2023-11-19T06:50:46;98916.97;;;9.32;100.00
62011;BME280;47967;51.756;10.174;2023-11-19T06:54:50;98924.69;;;9.22;100.00
62011;BME280;47967;51.756;10.174;2023-11-19T06:58:52;98910.66;;;9.06;100.00
62011;BME280;47967;51.756;10.174;2023-11-19T07:02:55;98913.53;;;9.11;100.00
62011;BME280;47967;51.756;10.174;2023-11-19T07:06:58;98910.38;;;9.21;100.00
62011;BME280;47967;51.756;10.174;2023-11-19T07:11:03;98929.66;;;9.18;100.00
62011;BME280;47967;51.756;10.174;2023-11-19T07:15:06;98933.88;;;8.94;100.00
62011;BME280;47967;51.756;10.174;2023-11-19T07:19:09;98928.94;;;8.71;100.00
62011;BME280;47967;51.756;10.174;2023-11-19T07:23:12;98924.19;;;8.66;100.00
62011;BME280;47967;51.756;10.174;2023-11-19T07:27:19;98919.38;;;8.88;100.00
62011;BME280;47967;51.756;10.174;2023-11-19T07:31:21;98921.03;;;8.89;100.00
62011;BME280;47967;51.756;10.174;2023-11-19T07:35:25;98929.91;;;8.90;100.00
62011;BME280;47967;51.756;10.174;2023-11-19T07:39:27;98937.97;;;9.03;100.00
62011;BME280;47967;51.756;10.174;2023-11-19T07:43:31;98934.88;;;9.13;100.00
62011;BME280;47967;51.756;10.174;2023-11-19T07:47:34;98937.06;;;9.29;100.00
62011;BME280;47967;51.756;10.174;2023-11-19T07:51:37;98940.34;;;9.38;100.00
62011;BME280;47967;51.756;10.174;2023-11-19T07:55:39;98951.13;;;9.38;100.00
62011;BME280;47967;51.756;10.174;2023-11-19T07:59:44;98941.59;;;9.42;100.00
62011;BME280;47967;51.756;10.174;2023-11-19T08:03:47;98938.69;;;9.44;100.00
62011;BME280;47967;51.756;10.174;2023-11-19T08:07:52;98927.41;;;9.67;100.00
62011;BME280;47967;51.756;10.174;2023-11-19T08:11:55;98936.44;;;9.80;100.00
62011;BME280;47967;51.756;10.174;2023-11-19T08:15:59;98937.53;;;9.72;100.00
62011;BME280;47967;51.756;10.174;2023-11-19T08:20:03;98938.75;;;9.76;100.00
62011;BME280;47967;51.756;10.174;2023-11-19T08:24:06;98931.88;;;9.80;100.00
62011;BME280;47967;51.756;10.174;2023-11-19T08:28:09;98927.94;;;9.83;100.00
62011;BME280;47967;51.756;10.174;2023-11-19T08:32:13;98939.50;;;9.90;100.00
62011;BME280;47967;51.756;10.174;2023-11-19T08:36:16;98957.97;;;9.86;100.00
62011;BME280;47967;51.756;10.174;2023-11-19T08:40:19;98964.13;;;9.93;100.00
62011;BME280;47967;51.756;10.174;2023-11-19T08:44:22;98968.69;;;9.93;100.00
62011;BME280;47967;51.756;10.174;2023-11-19T08:48:26;98957.53;;;9.89;100.00
62011;BME280;47967;51.756;10.174;2023-11-19T08:52:28;98966.56;;;10.02;100.00
62011;BME280;47967;51.756;10.174;2023-11-19T08:56:35;98969.59;;;10.19;100.00
62011;BME280;47967;51.756;10.174;2023-11-19T09:00:37;98962.66;;;10.30;100.00
62011;BME280;47967;51.756;10.174;2023-11-19T09:04:41;98966.97;;;10.44;100.00
62011;BME280;47967;51.756;10.174;2023-11-19T09:08:44;98972.81;;;10.34;100.00
62011;BME280;47967;51.756;10.174;2023-11-19T09:12:47;98980.34;;;10.25;100.00
62011;BME280;47967;51.756;10.174;2023-11-19T09:16:49;98970.44;;;10.51;100.00
62011;BME280;47967;51.756;10.174;2023-11-19T09:20:53;98982.66;;;10.79;100.00
62011;BME280;47967;51.756;10.174;2023-11-19T09:24:56;98989.94;;;10.97;100.00
62011;BME280;47967;51.756;10.174;2023-11-19T09:29:01;98983.59;;;11.10;100.00
62011;BME280;47967;51.756;10.174;2023-11-19T09:33:04;98989.00;;;11.10;100.00
62011;BME280;47967;51.756;10.174;2023-11-19T09:37:08;98994.41;;;11.10;100.00
62011;BME280;47967;51.756;10.174;2023-11-19T09:41:14;98985.41;;;11.16;100.00
62011;BME280;47967;51.756;10.174;2023-11-19T09:45:21;98990.47;;;11.50;100.00
62011;BME280;47967;51.756;10.174;2023-11-19T09:49:26;98985.38;;;11.91;100.00
62011;BME280;47967;51.756;10.174;2023-11-19T09:53:33;98978.28;;;12.27;100.00
62011;BME280;47967;51.756;10.174;2023-11-19T09:57:38;98976.66;;;12.49;100.00
62011;BME280;47967;51.756;10.174;2023-11-19T10:01:41;98969.66;;;13.08;100.00
62011;BME280;47967;51.756;10.174;2023-11-19T10:05:45;98968.13;;;13.48;100.00
62011;BME280;47967;51.756;10.174;2023-11-19T10:09:49;98975.28;;;13.54;100.00
62011;BME280;47967;51.756;10.174;2023-11-19T10:13:52;98980.66;;;13.66;100.00
62011;BME280;47967;51.756;10.174;2023-11-19T10:17:55;98987.53;;;13.56;100.00
62011;BME280;47967;51.756;10.174;2023-11-19T10:22:01;98990.84;;;13.47;100.00
62011;BME280;47967;51.756;10.174;2023-11-19T10:26:06;98978.69;;;13.37;100.00
62011;BME280;47967;51.756;10.174;2023-11-19T10:30:10;98981.06;;;13.57;100.00
62011;BME280;47967;51.756;10.174;2023-11-19T10:34:24;98972.69;;;13.35;100.00
62011;BME280;47967;51.756;10.174;2023-11-19T10:38:27;98980.13;;;13.04;100.00
62011;BME280;47967;51.756;10.174;2023-11-19T10:42:31;98979.53;;;12.67;100.00
62011;BME280;47967;51.756;10.174;2023-11-19T10:46:38;98998.03;;;12.27;100.00
62011;BME280;47967;51.756;10.174;2023-11-19T10:50:42;98976.81;;;12.12;100.00
62011;BME280;47967;51.756;10.174;2023-11-19T10:54:50;98982.31;;;11.87;100.00
62011;BME280;47967;51.756;10.174;2023-11-19T10:58:55;98980.34;;;11.45;100.00
62011;BME280;47967;51.756;10.174;2023-11-19T11:03:01;98991.91;;;11.52;100.00
62011;BME280;47967;51.756;10.174;2023-11-19T11:07:05;98990.53;;;11.80;100.00
62011;BME280;47967;51.756;10.174;2023-11-19T11:11:09;98987.94;;;12.04;100.00
62011;BME280;47967;51.756;10.174;2023-11-19T11:15:18;98983.22;;;12.30;100.00
62011;BME280;47967;51.756;10.174;2023-11-19T11:19:22;98984.56;;;12.63;100.00
62011;BME280;47967;51.756;10.174;2023-11-19T11:23:37;98988.72;;;12.77;100.00
62011;BME280;47967;51.756;10.174;2023-11-19T11:28:01;98995.19;;;12.76;100.00
62011;BME280;47967;51.756;10.174;2023-11-19T11:32:20;98995.53;;;12.80;100.00
62011;BME280;47967;51.756;10.174;2023-11-19T11:36:25;98990.25;;;12.97;100.00
62011;BME280;47967;51.756;10.174;2023-11-19T11:40:28;98983.91;;;13.15;100.00
62011;BME280;47967;51.756;10.174;2023-11-19T11:49:11;98983.97;;;13.68;100.00
62011;BME280;47967;51.756;10.174;2023-11-19T11:53:19;98988.59;;;13.55;100.00
62011;BME280;47967;51.756;10.174;2023-11-19T11:57:36;98983.91;;;13.15;100.00
62011;BME280;47967;51.756;10.174;2023-11-19T12:01:57;98969.91;;;13.06;100.00
62011;BME280;47967;51.756;10.174;2023-11-19T12:06:01;98966.72;;;12.97;100.00
62011;BME280;47967;51.756;10.174;2023-11-19T12:10:08;98968.84;;;12.84;100.00
62011;BME280;47967;51.756;10.174;2023-11-19T12:14:13;98976.34;;;12.81;100.00
62011;BME280;47967;51.756;10.174;2023-11-19T12:18:18;98976.81;;;12.67;100.00
62011;BME280;47967;51.756;10.174;2023-11-19T12:22:24;98968.13;;;12.88;100.00
62011;BME280;47967;51.756;10.174;2023-11-19T12:26:35;98962.59;;;12.95;100.00
62011;BME280;47967;51.756;10.174;2023-11-19T12:30:38;98966.72;;;12.74;100.00
62011;BME280;47967;51.756;10.174;2023-11-19T12:34:40;98964.25;;;12.72;100.00
62011;BME280;47967;51.756;10.174;2023-11-19T12:38:45;98964.13;;;12.79;100.00
62011;BME280;47967;51.756;10.174;2023-11-19T12:42:48;98962.81;;;12.93;100.00
62011;BME280;47967;51.756;10.174;2023-11-19T12:47:02;98970.84;;;13.00;100.00
62011;BME280;47967;51.756;10.174;2023-11-19T12:51:05;98971.06;;;13.10;100.00
62011;BME280;47967;51.756;10.174;2023-11-19T12:59:37;98965.78;;;12.92;100.00
62011;BME280;47967;51.756;10.174;2023-11-19T13:03:40;98972.13;;;12.86;100.00
62011;BME280;47967;51.756;10.174;2023-11-19T13:07:42;98974.81;;;12.62;100.00
62011;BME280;47967;51.756;10.174;2023-11-19T13:11:45;98972.94;;;12.20;100.00
62011;BME280;47967;51.756;10.174;2023-11-19T13:15:49;98953.03;;;12.03;100.00
62011;BME280;47967;51.756;10.174;2023-11-19T13:19:52;98963.72;;;11.79;100.00
62011;BME280;47967;51.756;10.174;2023-11-19T13:23:54;98962.81;;;11.66;100.00
62011;BME280;47967;51.756;10.174;2023-11-19T13:27:57;98966.16;;;11.50;100.00
62011;BME280;47967;51.756;10.174;2023-11-19T13:32:01;98957.22;;;11.49;100.00
62011;BME280;47967;51.756;10.174;2023-11-19T13:36:06;98959.63;;;11.58;100.00
62011;BME280;47967;51.756;10.174;2023-11-19T13:40:10;98951.50;;;11.58;100.00
62011;BME280;47967;51.756;10.174;2023-11-19T13:44:15;98948.72;;;11.64;100.00
62011;BME280;47967;51.756;10.174;2023-11-19T13:48:20;98931.78;;;11.88;100.00
62011;BME280;47967;51.756;10.174;2023-11-19T13:52:23;98932.03;;;12.16;100.00
62011;BME280;47967;51.756;10.174;2023-11-19T13:56:26;98925.38;;;12.43;100.00
62011;BME280;47967;51.756;10.174;2023-11-19T14:00:29;98933.03;;;12.58;100.00
62011;BME280;47967;51.756;10.174;2023-11-19T14:04:33;98925.88;;;12.52;100.00
62011;BME280;47967;51.756;10.174;2023-11-19T14:08:35;98940.41;;;12.27;100.00
62011;BME280;47967;51.756;10.174;2023-11-19T14:12:39;98941.44;;;12.14;100.00
62011;BME280;47967;51.756;10.174;2023-11-19T14:16:42;98947.56;;;12.21;100.00
62011;BME280;47967;51.756;10.174;2023-11-19T14:20:46;98933.31;;;12.14;100.00
62011;BME280;47967;51.756;10.174;2023-11-19T14:24:48;98945.13;;;12.01;100.00
62011;BME280;47967;51.756;10.174;2023-11-19T14:28:51;98933.91;;;11.85;100.00
62011;BME280;47967;51.756;10.174;2023-11-19T14:32:57;98936.91;;;11.77;100.00
62011;BME280;47967;51.756;10.174;2023-11-19T14:37:01;98953.13;;;11.77;100.00
62011;BME280;47967;51.756;10.174;2023-11-19T14:41:04;98970.78;;;11.80;100.00
62011;BME280;47967;51.756;10.174;2023-11-19T14:45:07;98963.19;;;11.14;100.00
62011;BME280;47967;51.756;10.174;2023-11-19T14:49:13;98939.69;;;10.78;100.00
62011;BME280;47967;51.756;10.174;2023-11-19T14:53:17;98940.31;;;10.80;100.00
62011;BME280;47967;51.756;10.174;2023-11-19T14:57:21;98931.72;;;10.64;100.00
62011;BME280;47967;51.756;10.174;2023-11-19T15:01:24;98939.75;;;10.71;100.00
62011;BME280;47967;51.756;10.174;2023-11-19T15:05:26;98913.06;;;10.63;100.00
62011;BME280;47967;51.756;10.174;2023-11-19T15:09:31;98922.38;;;10.41;100.00
62011;BME280;47967;51.756;10.174;2023-11-19T15:13:34;98916.06;;;10.22;100.00
62011;BME280;47967;51.756;10.174;2023-11-19T15:17:39;98929.84;;;10.07;100.00
62011;BME280;47967;51.756;10.174;2023-11-19T15:21:42;98923.06;;;9.98;100.00
62011;BME280;47967;51.756;10.174;2023-11-19T15:25:46;98938.50;;;10.16;100.00
62011;BME280;47967;51.756;10.174;2023-11-19T15:29:48;98932.84;;;10.24;100.00
62011;BME280;47967;51.756;10.174;2023-11-19T15:33:51;98924.22;;;10.16;100.00
62011;BME280;47967;51.756;10.174;2023-11-19T15:37:53;98925.72;;;10.05;100.00
62011;BME280;47967;51.756;10.174;2023-11-19T15:41:59;98921.16;;;10.05;100.00
62011;BME280;47967;51.756;10.174;2023-11-19T15:46:05;98929.41;;;10.10;100.00
62011;BME280;47967;51.756;10.174;2023-11-19T15:50:08;98928.81;;;10.08;100.00
62011;BME280;47967;51.756;10.174;2023-11-19T15:54:12;98935.88;;;10.09;100.00
62011;BME280;47967;51.756;10.174;2023-11-19T15:58:16;98935.63;;;10.11;100.00
62011;BME280;47967;51.756;10.174;2023-11-19T16:02:19;98935.19;;;10.14;100.00
62011;BME280;47967;51.756;10.174;2023-11-19T16:06:22;98946.66;;;10.09;100.00
62011;BME280;47967;51.756;10.174;2023-11-19T16:10:25;98946.66;;;10.03;100.00
62011;BME280;47967;51.756;10.174;2023-11-19T16:14:29;98939.16;;;10.12;100.00
62011;BME280;47967;51.756;10.174;2023-11-19T16:18:32;98952.81;;;10.17;100.00
62011;BME280;47967;51.756;10.174;2023-11-19T16:22:35;98962.13;;;10.21;100.00
62011;BME280;47967;51.756;10.174;2023-11-19T16:26:38;98945.41;;;10.37;100.00
62011;BME280;47967;51.756;10.174;2023-11-19T16:30:42;98956.78;;;10.46;100.00
62011;BME280;47967;51.756;10.174;2023-11-19T16:34:44;98946.38;;;10.50;100.00
62011;BME280;47967;51.756;10.174;2023-11-19T16:38:49;98947.19;;;10.50;100.00
62011;BME280;47967;51.756;10.174;2023-11-19T16:42:52;98944.28;;;10.52;100.00
62011;BME280;47967;51.756;10.174;2023-11-19T16:46:57;98943.31;;;10.46;100.00
62011;BME280;47967;51.756;10.174;2023-11-19T16:51:00;98939.53;;;10.47;100.00
62011;BME280;47967;51.756;10.174;2023-11-19T16:55:05;98945.78;;;10.48;100.00
62011;BME280;47967;51.756;10.174;2023-11-19T16:59:13;98950.56;;;10.46;100.00
62011;BME280;47967;51.756;10.174;2023-11-19T17:03:17;98947.47;;;10.42;100.00
62011;BME280;47967;51.756;10.174;2023-11-19T17:07:22;98954.09;;;10.46;100.00
62011;BME280;47967;51.756;10.174;2023-11-19T17:11:26;98954.69;;;10.48;100.00
62011;BME280;47967;51.756;10.174;2023-11-19T17:15:29;98954.09;;;10.46;100.00
62011;BME280;47967;51.756;10.174;2023-11-19T17:19:33;98969.19;;;10.47;100.00
62011;BME280;47967;51.756;10.174;2023-11-19T17:23:36;98959.03;;;10.49;100.00
62011;BME280;47967;51.756;10.174;2023-11-19T17:27:40;98949.66;;;10.52;100.00
62011;BME280;47967;51.756;10.174;2023-11-19T17:31:44;98955.91;;;10.52;100.00
62011;BME280;47967;51.756;10.174;2023-11-19T17:35:48;98957.09;;;10.56;100.00
62011;BME280;47967;51.756;10.174;2023-11-19T17:39:51;98964.41;;;10.49;100.00
62011;BME280;47967;51.756;10.174;2023-11-19T17:43:54;98951.41;;;10.46;100.00
62011;BME280;47967;51.756;10.174;2023-11-19T17:47:57;98949.56;;;10.40;100.00
62011;BME280;47967;51.756;10.174;2023-11-19T17:52:01;98948.53;;;10.34;100.00
62011;BME280;47967;51.756;10.174;2023-11-19T17:56:05;98946.50;;;10.36;100.00
62011;BME280;47967;51.756;10.174;2023-11-19T18:00:09;98941.25;;;10.41;100.00
62011;BME280;47967;51.756;10.174;2023-11-19T18:04:15;98947.03;;;10.45;100.00
62011;BME280;47967;51.756;10.174;2023-11-19T18:08:19;98951.16;;;10.48;100.00
62011;BME280;47967;51.756;10.174;2023-11-19T18:12:24;98942.69;;;10.44;100.00
62011;BME280;47967;51.756;10.174;2023-11-19T18:16:26;98951.88;;;10.36;100.00
62011;BME280;47967;51.756;10.174;2023-11-19T18:20:29;98943.13;;;10.41;100.00
62011;BME280;47967;51.756;10.174;2023-11-19T18:24:34;98951.41;;;10.46;100.00
62011;BME280;47967;51.756;10.174;2023-11-19T18:28:37;98952.75;;;10.55;100.00
62011;BME280;47967;51.756;10.174;2023-11-19T18:32:41;98953.69;;;10.68;100.00
62011;BME280;47967;51.756;10.174;2023-11-19T18:36:45;98955.34;;;10.69;100.00
62011;BME280;47967;51.756;10.174;2023-11-19T18:40:49;98962.94;;;10.79;100.00
62011;BME280;47967;51.756;10.174;2023-11-19T18:44:52;98952.13;;;10.79;100.00
62011;BME280;47967;51.756;10.174;2023-11-19T18:48:55;98962.50;;;10.82;100.00
62011;BME280;47967;51.756;10.174;2023-11-19T18:53:01;98961.88;;;10.80;100.00
62011;BME280;47967;51.756;10.174;2023-11-19T18:57:05;98959.47;;;10.71;100.00
62011;BME280;47967;51.756;10.174;2023-11-19T19:01:08;98962.47;;;10.63;100.00
62011;BME280;47967;51.756;10.174;2023-11-19T19:05:13;98967.00;;;10.63;100.00
62011;BME280;47967;51.756;10.174;2023-11-19T19:09:17;98975.56;;;10.60;100.00
62011;BME280;47967;51.756;10.174;2023-11-19T19:13:21;98956.34;;;10.49;100.00
62011;BME280;47967;51.756;10.174;2023-11-19T19:17:24;98962.25;;;10.33;100.00
62011;BME280;47967;51.756;10.174;2023-11-19T19:21:29;98971.41;;;10.25;100.00
62011;BME280;47967;51.756;10.174;2023-11-19T19:25:32;98968.16;;;10.16;100.00
62011;BME280;47967;51.756;10.174;2023-11-19T19:29:36;98951.81;;;10.11;100.00
62011;BME280;47967;51.756;10.174;2023-11-19T19:33:38;98965.50;;;10.09;100.00
62011;BME280;47967;51.756;10.174;2023-11-19T19:37:41;98960.53;;;10.06;100.00
62011;BME280;47967;51.756;10.174;2023-11-19T19:41:44;98954.94;;;10.08;100.00
62011;BME280;47967;51.756;10.174;2023-11-19T19:45:48;98965.06;;;10.13;100.00
62011;BME280;47967;51.756;10.174;2023-11-19T19:49:51;98958.84;;;10.12;100.00
62011;BME280;47967;51.756;10.174;2023-11-19T19:53:53;98962.38;;;10.13;100.00
62011;BME280;47967;51.756;10.174;2023-11-19T19:57:56;98972.50;;;10.17;100.00
62011;BME280;47967;51.756;10.174;2023-11-19T20:02:00;98965.50;;;10.09;100.00
62011;BME280;47967;51.756;10.174;2023-11-19T20:06:04;98962.84;;;10.03;100.00
62011;BME280;47967;51.756;10.174;2023-11-19T20:10:12;98969.88;;;10.04;100.00
62011;BME280;47967;51.756;10.174;2023-11-19T20:14:16;98965.72;;;10.08;100.00
62011;BME280;47967;51.756;10.174;2023-11-19T20:18:20;98962.84;;;10.03;100.00
62011;BME280;47967;51.756;10.174;2023-11-19T20:22:24;98965.53;;;10.03;100.00
62011;BME280;47967;51.756;10.174;2023-11-19T20:26:29;98970.34;;;9.94;100.00
62011;BME280;47967;51.756;10.174;2023-11-19T20:30:32;98964.53;;;9.97;100.00
62011;BME280;47967;51.756;10.174;2023-11-19T20:34:36;98964.13;;;9.93;100.00
62011;BME280;47967;51.756;10.174;2023-11-19T20:38:39;98963.75;;;9.90;100.00
62011;BME280;47967;51.756;10.174;2023-11-19T20:42:41;98953.19;;;9.88;100.00
62011;BME280;47967;51.756;10.174;2023-11-19T20:46:44;98971.63;;;9.91;100.00
62011;BME280;47967;51.756;10.174;2023-11-19T20:50:48;98960.63;;;9.93;100.00
62011;BME280;47967;51.756;10.174;2023-11-19T20:54:51;98957.50;;;9.96;100.00
62011;BME280;47967;51.756;10.174;2023-11-19T20:58:54;98958.75;;;9.93;100.00
62011;BME280;47967;51.756;10.174;2023-11-19T21:02:57;98954.59;;;9.91;100.00
62011;BME280;47967;51.756;10.174;2023-11-19T21:07:01;98957.69;;;9.94;100.00
62011;BME280;47967;51.756;10.174;2023-11-19T21:11:08;98959.13;;;9.97;100.00
62011;BME280;47967;51.756;10.174;2023-11-19T21:15:11;98953.56;;;9.99;100.00
62011;BME280;47967;51.756;10.174;2023-11-19T21:19:14;98953.28;;;10.07;100.00
62011;BME280;47967;51.756;10.174;2023-11-19T21:23:18;98947.06;;;10.06;100.00
62011;BME280;47967;51.756;10.174;2023-11-19T21:27:22;98949.34;;;10.09;100.00
62011;BME280;47967;51.756;10.174;2023-11-19T21:31:25;98938.97;;;10.06;100.00
62011;BME280;47967;51.756;10.174;2023-11-19T21:35:28;98938.56;;;10.09;100.00
62011;BME280;47967;51.756;10.174;2023-11-19T21:39:31;98933.19;;;10.03;100.00
62011;BME280;47967;51.756;10.174;2023-11-19T21:43:34;98935.09;;;10.02;100.00
62011;BME280;47967;51.756;10.174;2023-11-19T21:47:37;98927.59;;;10.04;100.00
62011;BME280;47967;51.756;10.174;2023-11-19T21:51:40;98924.72;;;9.99;100.00
62011;BME280;47967;51.756;10.174;2023-11-19T21:55:44;98923.06;;;9.98;100.00
62011;BME280;47967;51.756;10.174;2023-11-19T21:59:47;98921.22;;;9.99;100.00
